sensor_id;sensor_type;location;lat;lon;timestamp;temperature;humidity
9907;DHT22;4992;51.628;6.664;2024-03-06T00:02:18;5.40;99.90
9907;DHT22;4992;51.628;6.664;2024-03-06T00:04:44;5.40;99.90
9907;DHT22;4992;51.628;6.664;2024-03-06T00:07:10;5.30;99.90
9907;DHT22;4992;51.628;6.664;2024-03-06T00:09:36;5.30;99.90
9907;DHT22;4992;51.628;6.664;2024-03-06T00:12:02;5.30;99.90
9907;DHT22;4992;51.628;6.664;2024-03-06T00:14:27;5.20;99.90
9907;DHT22;4992;51.628;6.664;2024-03-06T00:16:53;5.20;99.90
9907;DHT22;4992;51.628;6.664;2024-03-06T00:19:21;5.20;99.90
9907;DHT22;4992;51.628;6.664;2024-03-06T00:21:47;5.20;99.90
9907;DHT22;4992;51.628;6.664;2024-03-06T00:24:13;5.10;99.90
9907;DHT22;4992;51.628;6.664;2024-03-06T00:26:43;5.10;99.90
9907;DHT22;4992;51.628;6.664;2024-03-06T00:29:09;5.00;99.90
9907;DHT22;4992;51.628;6.664;2024-03-06T00:31:35;5.00;99.90
9907;DHT22;4992;51.628;6.664;2024-03-06T00:34:01;4.90;99.90
9907;DHT22;4992;51.628;6.664;2024-03-06T00:36:26;4.80;99.90
9907;DHT22;4992;51.628;6.664;2024-03-06T00:38:52;4.70;99.90
9907;DHT22;4992;51.628;6.664;2024-03-06T00:41:18;4.70;99.90
9907;DHT22;4992;51.628;6.664;2024-03-06T00:43:44;4.60;99.90
9907;DHT22;4992;51.628;6.664;2024-03-06T00:46:10;4.60;99.90
9907;DHT22;4992;51.628;6.664;2024-03-06T00:48:36;4.60;99.90
9907;DHT22;4992;51.628;6.664;2024-03-06T00:51:01;4.50;99.90
9907;DHT22;4992;51.628;6.664;2024-03-06T00:53:27;4.50;99.90
9907;DHT22;4992;51.628;6.664;2024-03-06T00:55:53;4.40;99.90
9907;DHT22;4992;51.628;6.664;2024-03-06T00:58:19;4.40;99.90
9907;DHT22;4992;51.628;6.664;2024-03-06T01:00:44;4.40;99.90
9907;DHT22;4992;51.628;6.664;2024-03-06T01:03:10;4.30;99.90
9907;DHT22;4992;51.628;6.664;2024-03-06T01:05:35;4.20;99.90
9907;DHT22;4992;51.628;6.664;2024-03-06T01:08:01;4.20;99.90
9907;DHT22;4992;51.628;6.664;2024-03-06T01:10:26;4.10;99.90
9907;DHT22;4992;51.628;6.664;2024-03-06T01:12:52;4.10;99.90
9907;DHT22;4992;51.628;6.664;2024-03-06T01:15:17;4.10;99.90
9907;DHT22;4992;51.628;6.664;2024-03-06T01:17:43;4.00;99.90
9907;DHT22;4992;51.628;6.664;2024-03-06T01:20:09;3.90;99.90
9907;DHT22;4992;51.628;6.664;2024-03-06T01:22:34;3.80;99.90
9907;DHT22;4992;51.628;6.664;2024-03-06T01:25:00;3.80;99.90
9907;DHT22;4992;51.628;6.664;2024-03-06T01:27:27;3.80;99.90
9907;DHT22;4992;51.628;6.664;2024-03-06T01:29:52;3.70;99.90
9907;DHT22;4992;51.628;6.664;2024-03-06T01:32:18;3.60;99.90
9907;DHT22;4992;51.628;6.664;2024-03-06T01:34:43;3.50;99.90
9907;DHT22;4992;51.628;6.664;2024-03-06T01:37:09;3.60;99.90
9907;DHT22;4992;51.628;6.664;2024-03-06T01:39:34;3.50;99.90
9907;DHT22;4992;51.628;6.664;2024-03-06T01:42:02;3.50;99.90
9907;DHT22;4992;51.628;6.664;2024-03-06T01:44:28;3.40;99.90
9907;DHT22;4992;51.628;6.664;2024-03-06T01:46:54;3.40;99.90
9907;DHT22;4992;51.628;6.664;2024-03-06T01:49:21;3.30;99.90
9907;DHT22;4992;51.628;6.664;2024-03-06T01:51:53;3.30;99.90
9907;DHT22;4992;51.628;6.664;2024-03-06T01:54:19;3.30;99.90
9907;DHT22;4992;51.628;6.664;2024-03-06T01:56:46;3.20;99.90
9907;DHT22;4992;51.628;6.664;2024-03-06T01:59:13;3.10;99.90
9907;DHT22;4992;51.628;6.664;2024-03-06T02:01:40;3.20;99.90
9907;DHT22;4992;51.628;6.664;2024-03-06T02:04:09;3.20;99.90
9907;DHT22;4992;51.628;6.664;2024-03-06T02:06:38;3.20;99.90
9907;DHT22;4992;51.628;6.664;2024-03-06T02:09:04;3.20;99.90
9907;DHT22;4992;51.628;6.664;2024-03-06T02:11:30;3.20;99.90
9907;DHT22;4992;51.628;6.664;2024-03-06T02:13:56;3.10;99.90
9907;DHT22;4992;51.628;6.664;2024-03-06T02:16:21;3.00;99.90
9907;DHT22;4992;51.628;6.664;2024-03-06T02:18:54;3.00;99.90
9907;DHT22;4992;51.628;6.664;2024-03-06T02:21:24;3.00;99.90
9907;DHT22;4992;51.628;6.664;2024-03-06T02:23:50;2.90;99.90
9907;DHT22;4992;51.628;6.664;2024-03-06T02:26:19;2.90;99.90
9907;DHT22;4992;51.628;6.664;2024-03-06T02:28:49;2.80;99.90
9907;DHT22;4992;51.628;6.664;2024-03-06T02:31:18;2.80;99.90
9907;DHT22;4992;51.628;6.664;2024-03-06T02:33:45;2.80;99.90
9907;DHT22;4992;51.628;6.664;2024-03-06T02:36:13;2.80;99.90
9907;DHT22;4992;51.628;6.664;2024-03-06T02:38:38;2.70;99.90
9907;DHT22;4992;51.628;6.664;2024-03-06T02:41:04;2.70;99.90
9907;DHT22;4992;51.628;6.664;2024-03-06T02:43:35;2.60;99.90
9907;DHT22;4992;51.628;6.664;2024-03-06T02:46:00;2.60;99.90
9907;DHT22;4992;51.628;6.664;2024-03-06T02:48:26;2.60;99.90
9907;DHT22;4992;51.628;6.664;2024-03-06T02:50:52;2.50;99.90
9907;DHT22;4992;51.628;6.664;2024-03-06T02:53:17;2.50;99.90
9907;DHT22;4992;51.628;6.664;2024-03-06T02:55:43;2.50;99.90
9907;DHT22;4992;51.628;6.664;2024-03-06T02:58:08;2.50;99.90
9907;DHT22;4992;51.628;6.664;2024-03-06T03:00:34;2.50;99.90
9907;DHT22;4992;51.628;6.664;2024-03-06T03:03:00;2.50;99.90
9907;DHT22;4992;51.628;6.664;2024-03-06T03:05:25;2.50;99.90
9907;DHT22;4992;51.628;6.664;2024-03-06T03:07:51;2.40;99.90
9907;DHT22;4992;51.628;6.664;2024-03-06T03:10:16;2.40;99.90
9907;DHT22;4992;51.628;6.664;2024-03-06T03:12:42;2.40;99.90
9907;DHT22;4992;51.628;6.664;2024-03-06T03:15:09;2.40;99.90
9907;DHT22;4992;51.628;6.664;2024-03-06T03:17:35;2.40;99.90
9907;DHT22;4992;51.628;6.664;2024-03-06T03:20:04;2.40;99.90
9907;DHT22;4992;51.628;6.664;2024-03-06T03:22:36;2.30;99.90
9907;DHT22;4992;51.628;6.664;2024-03-06T03:25:02;2.30;99.90
9907;DHT22;4992;51.628;6.664;2024-03-06T03:27:28;2.30;99.90
9907;DHT22;4992;51.628;6.664;2024-03-06T03:29:53;2.20;99.90
9907;DHT22;4992;51.628;6.664;2024-03-06T03:32:19;2.20;99.90
9907;DHT22;4992;51.628;6.664;2024-03-06T03:34:44;2.10;99.90
9907;DHT22;4992;51.628;6.664;2024-03-06T03:37:10;2.10;99.90
9907;DHT22;4992;51.628;6.664;2024-03-06T03:39:35;2.10;99.90
9907;DHT22;4992;51.628;6.664;2024-03-06T03:42:01;2.10;99.90
9907;DHT22;4992;51.628;6.664;2024-03-06T03:44:27;2.10;99.90
9907;DHT22;4992;51.628;6.664;2024-03-06T03:46:52;2.00;99.90
9907;DHT22;4992;51.628;6.664;2024-03-06T03:49:18;2.00;99.90
9907;DHT22;4992;51.628;6.664;2024-03-06T03:51:43;2.00;99.90
9907;DHT22;4992;51.628;6.664;2024-03-06T03:54:09;2.00;99.90
9907;DHT22;4992;51.628;6.664;2024-03-06T03:56:34;2.10;99.90
9907;DHT22;4992;51.628;6.664;2024-03-06T03:59:00;2.00;99.90
9907;DHT22;4992;51.628;6.664;2024-03-06T04:01:26;2.00;99.90
9907;DHT22;4992;51.628;6.664;2024-03-06T04:03:51;2.00;99.90
9907;DHT22;4992;51.628;6.664;2024-03-06T04:06:17;2.00;99.90
9907;DHT22;4992;51.628;6.664;2024-03-06T04:08:44;2.00;99.90
9907;DHT22;4992;51.628;6.664;2024-03-06T04:11:09;2.00;99.90
9907;DHT22;4992;51.628;6.664;2024-03-06T04:13:36;2.00;99.90
9907;DHT22;4992;51.628;6.664;2024-03-06T04:16:02;2.00;99.90
9907;DHT22;4992;51.628;6.664;2024-03-06T04:18:32;1.90;99.90
9907;DHT22;4992;51.628;6.664;2024-03-06T04:21:07;1.90;99.90
9907;DHT22;4992;51.628;6.664;2024-03-06T04:23:33;1.90;99.90
9907;DHT22;4992;51.628;6.664;2024-03-06T04:26:02;1.90;99.90
9907;DHT22;4992;51.628;6.664;2024-03-06T04:28:28;1.90;99.90
9907;DHT22;4992;51.628;6.664;2024-03-06T04:30:54;1.90;99.90
9907;DHT22;4992;51.628;6.664;2024-03-06T04:33:19;1.90;99.90
9907;DHT22;4992;51.628;6.664;2024-03-06T04:35:45;1.90;99.90
9907;DHT22;4992;51.628;6.664;2024-03-06T04:38:11;1.90;99.90
9907;DHT22;4992;51.628;6.664;2024-03-06T04:40:36;1.80;99.90
9907;DHT22;4992;51.628;6.664;2024-03-06T04:43:02;1.80;99.90
9907;DHT22;4992;51.628;6.664;2024-03-06T04:45:27;1.80;99.90
9907;DHT22;4992;51.628;6.664;2024-03-06T04:47:56;1.80;99.90
9907;DHT22;4992;51.628;6.664;2024-03-06T04:50:21;1.90;99.90
9907;DHT22;4992;51.628;6.664;2024-03-06T04:52:47;1.90;99.90
9907;DHT22;4992;51.628;6.664;2024-03-06T04:55:13;1.90;99.90
9907;DHT22;4992;51.628;6.664;2024-03-06T04:57:43;1.90;99.90
9907;DHT22;4992;51.628;6.664;2024-03-06T05:00:10;1.80;99.90
9907;DHT22;4992;51.628;6.664;2024-03-06T05:02:36;1.90;99.90
9907;DHT22;4992;51.628;6.664;2024-03-06T05:05:03;1.80;99.90
9907;DHT22;4992;51.628;6.664;2024-03-06T05:07:30;1.80;99.90
9907;DHT22;4992;51.628;6.664;2024-03-06T05:09:56;1.80;99.90
9907;DHT22;4992;51.628;6.664;2024-03-06T05:12:23;1.80;99.90
9907;DHT22;4992;51.628;6.664;2024-03-06T05:14:49;1.80;99.90
9907;DHT22;4992;51.628;6.664;2024-03-06T05:17:14;1.80;99.90
9907;DHT22;4992;51.628;6.664;2024-03-06T05:19:40;1.80;99.90
9907;DHT22;4992;51.628;6.664;2024-03-06T05:22:05;1.80;99.90
9907;DHT22;4992;51.628;6.664;2024-03-06T05:24:31;1.80;99.90
9907;DHT22;4992;51.628;6.664;2024-03-06T05:26:56;1.80;99.90
9907;DHT22;4992;51.628;6.664;2024-03-06T05:29:22;1.70;99.90
9907;DHT22;4992;51.628;6.664;2024-03-06T05:31:47;1.70;99.90
9907;DHT22;4992;51.628;6.664;2024-03-06T05:34:13;1.60;99.90
9907;DHT22;4992;51.628;6.664;2024-03-06T05:36:38;1.60;99.90
9907;DHT22;4992;51.628;6.664;2024-03-06T05:39:04;1.60;99.90
9907;DHT22;4992;51.628;6.664;2024-03-06T05:41:37;1.60;99.90
9907;DHT22;4992;51.628;6.664;2024-03-06T05:44:02;1.50;99.90
9907;DHT22;4992;51.628;6.664;2024-03-06T05:46:29;1.50;99.90
9907;DHT22;4992;51.628;6.664;2024-03-06T05:48:54;1.50;99.90
9907;DHT22;4992;51.628;6.664;2024-03-06T05:51:20;1.50;99.90
9907;DHT22;4992;51.628;6.664;2024-03-06T05:53:46;1.50;99.90
9907;DHT22;4992;51.628;6.664;2024-03-06T05:56:11;1.50;99.90
9907;DHT22;4992;51.628;6.664;2024-03-06T05:58:37;1.50;99.90
9907;DHT22;4992;51.628;6.664;2024-03-06T06:01:02;1.50;99.90
9907;DHT22;4992;51.628;6.664;2024-03-06T06:03:31;1.50;99.90
9907;DHT22;4992;51.628;6.664;2024-03-06T06:05:57;1.50;99.90
9907;DHT22;4992;51.628;6.664;2024-03-06T06:08:23;1.60;99.90
9907;DHT22;4992;51.628;6.664;2024-03-06T06:10:49;1.60;99.90
9907;DHT22;4992;51.628;6.664;2024-03-06T06:13:17;1.70;99.90
9907;DHT22;4992;51.628;6.664;2024-03-06T06:15:42;1.70;99.90
9907;DHT22;4992;51.628;6.664;2024-03-06T06:18:08;1.70;99.90
9907;DHT22;4992;51.628;6.664;2024-03-06T06:20:33;1.70;99.90
9907;DHT22;4992;51.628;6.664;2024-03-06T06:22:59;1.70;99.90
9907;DHT22;4992;51.628;6.664;2024-03-06T06:25:25;1.70;99.90
9907;DHT22;4992;51.628;6.664;2024-03-06T06:27:51;1.80;99.90
9907;DHT22;4992;51.628;6.664;2024-03-06T06:30:17;1.80;99.90
9907;DHT22;4992;51.628;6.664;2024-03-06T06:32:42;1.90;99.90
9907;DHT22;4992;51.628;6.664;2024-03-06T06:35:09;1.80;99.90
9907;DHT22;4992;51.628;6.664;2024-03-06T06:37:35;1.90;99.90
9907;DHT22;4992;51.628;6.664;2024-03-06T06:40:01;1.80;99.90
9907;DHT22;4992;51.628;6.664;2024-03-06T06:42:34;1.80;99.90
9907;DHT22;4992;51.628;6.664;2024-03-06T06:45:01;1.80;99.90
9907;DHT22;4992;51.628;6.664;2024-03-06T06:47:28;1.80;99.90
9907;DHT22;4992;51.628;6.664;2024-03-06T06:49:53;1.90;99.90
9907;DHT22;4992;51.628;6.664;2024-03-06T06:52:19;1.90;99.90
9907;DHT22;4992;51.628;6.664;2024-03-06T06:54:44;2.00;99.90
9907;DHT22;4992;51.628;6.664;2024-03-06T06:57:10;2.00;99.90
9907;DHT22;4992;51.628;6.664;2024-03-06T06:59:36;2.10;99.90
9907;DHT22;4992;51.628;6.664;2024-03-06T07:02:03;2.10;99.90
9907;DHT22;4992;51.628;6.664;2024-03-06T07:04:28;2.20;99.90
9907;DHT22;4992;51.628;6.664;2024-03-06T07:06:54;2.20;99.90
9907;DHT22;4992;51.628;6.664;2024-03-06T07:09:19;2.30;99.90
9907;DHT22;4992;51.628;6.664;2024-03-06T07:11:45;2.40;99.90
9907;DHT22;4992;51.628;6.664;2024-03-06T07:14:14;2.40;99.90
9907;DHT22;4992;51.628;6.664;2024-03-06T07:16:43;2.50;99.90
9907;DHT22;4992;51.628;6.664;2024-03-06T07:19:09;2.50;99.90
9907;DHT22;4992;51.628;6.664;2024-03-06T07:21:34;2.60;99.90
9907;DHT22;4992;51.628;6.664;2024-03-06T07:24:00;2.60;99.90
9907;DHT22;4992;51.628;6.664;2024-03-06T07:26:25;2.70;99.90
9907;DHT22;4992;51.628;6.664;2024-03-06T07:28:51;2.80;99.90
9907;DHT22;4992;51.628;6.664;2024-03-06T07:31:18;2.90;99.90
9907;DHT22;4992;51.628;6.664;2024-03-06T07:33:44;2.90;99.90
9907;DHT22;4992;51.628;6.664;2024-03-06T07:36:09;3.00;99.90
9907;DHT22;4992;51.628;6.664;2024-03-06T07:38:35;3.10;99.90
9907;DHT22;4992;51.628;6.664;2024-03-06T07:41:00;3.10;99.90
9907;DHT22;4992;51.628;6.664;2024-03-06T07:43:26;3.20;99.90
9907;DHT22;4992;51.628;6.664;2024-03-06T07:45:52;3.30;99.90
9907;DHT22;4992;51.628;6.664;2024-03-06T07:48:18;3.40;99.90
9907;DHT22;4992;51.628;6.664;2024-03-06T07:50:44;3.60;99.90
9907;DHT22;4992;51.628;6.664;2024-03-06T07:53:09;3.70;99.90
9907;DHT22;4992;51.628;6.664;2024-03-06T07:55:35;3.80;99.90
9907;DHT22;4992;51.628;6.664;2024-03-06T07:58:00;4.00;99.90
9907;DHT22;4992;51.628;6.664;2024-03-06T08:00:26;4.10;99.90
9907;DHT22;4992;51.628;6.664;2024-03-06T08:02:52;4.20;99.90
9907;DHT22;4992;51.628;6.664;2024-03-06T08:05:18;4.30;99.90
9907;DHT22;4992;51.628;6.664;2024-03-06T08:07:43;4.50;99.90
9907;DHT22;4992;51.628;6.664;2024-03-06T08:10:12;4.60;99.90
9907;DHT22;4992;51.628;6.664;2024-03-06T08:12:41;4.80;99.90
9907;DHT22;4992;51.628;6.664;2024-03-06T08:15:11;5.00;99.90
9907;DHT22;4992;51.628;6.664;2024-03-06T08:17:38;5.20;99.90
9907;DHT22;4992;51.628;6.664;2024-03-06T08:20:05;5.30;99.90
9907;DHT22;4992;51.628;6.664;2024-03-06T08:22:37;5.30;99.90
9907;DHT22;4992;51.628;6.664;2024-03-06T08:25:06;5.50;99.90
9907;DHT22;4992;51.628;6.664;2024-03-06T08:27:34;5.50;99.90
9907;DHT22;4992;51.628;6.664;2024-03-06T08:29:59;5.70;99.90
9907;DHT22;4992;51.628;6.664;2024-03-06T08:32:25;5.80;99.90
9907;DHT22;4992;51.628;6.664;2024-03-06T08:34:50;6.00;99.90
9907;DHT22;4992;51.628;6.664;2024-03-06T08:37:16;6.10;99.90
9907;DHT22;4992;51.628;6.664;2024-03-06T08:39:41;6.20;99.90
9907;DHT22;4992;51.628;6.664;2024-03-06T08:42:07;6.30;99.90
9907;DHT22;4992;51.628;6.664;2024-03-06T08:44:33;6.50;99.90
9907;DHT22;4992;51.628;6.664;2024-03-06T08:46:59;6.60;99.90
9907;DHT22;4992;51.628;6.664;2024-03-06T08:49:24;6.80;99.90
9907;DHT22;4992;51.628;6.664;2024-03-06T08:51:50;6.90;99.90
9907;DHT22;4992;51.628;6.664;2024-03-06T08:54:15;7.10;99.90
9907;DHT22;4992;51.628;6.664;2024-03-06T08:56:43;7.20;99.90
9907;DHT22;4992;51.628;6.664;2024-03-06T08:59:09;7.30;99.90
9907;DHT22;4992;51.628;6.664;2024-03-06T09:01:34;7.40;99.90
9907;DHT22;4992;51.628;6.664;2024-03-06T09:04:00;7.40;99.90
9907;DHT22;4992;51.628;6.664;2024-03-06T09:06:25;7.40;99.90
9907;DHT22;4992;51.628;6.664;2024-03-06T09:08:52;7.40;99.90
9907;DHT22;4992;51.628;6.664;2024-03-06T09:11:18;7.40;99.90
9907;DHT22;4992;51.628;6.664;2024-03-06T09:13:43;7.40;99.90
9907;DHT22;4992;51.628;6.664;2024-03-06T09:16:09;7.40;99.90
9907;DHT22;4992;51.628;6.664;2024-03-06T09:18:34;7.50;99.90
9907;DHT22;4992;51.628;6.664;2024-03-06T09:21:00;7.50;99.90
9907;DHT22;4992;51.628;6.664;2024-03-06T09:23:25;7.50;99.90
9907;DHT22;4992;51.628;6.664;2024-03-06T09:25:51;7.60;99.90
9907;DHT22;4992;51.628;6.664;2024-03-06T09:28:17;7.70;99.90
9907;DHT22;4992;51.628;6.664;2024-03-06T09:30:42;7.90;99.90
9907;DHT22;4992;51.628;6.664;2024-03-06T09:33:08;8.00;99.90
9907;DHT22;4992;51.628;6.664;2024-03-06T09:35:33;8.10;99.90
9907;DHT22;4992;51.628;6.664;2024-03-06T09:37:59;8.20;99.90
9907;DHT22;4992;51.628;6.664;2024-03-06T09:40:26;8.30;99.90
9907;DHT22;4992;51.628;6.664;2024-03-06T09:42:52;8.40;99.90
9907;DHT22;4992;51.628;6.664;2024-03-06T09:45:18;8.50;99.90
9907;DHT22;4992;51.628;6.664;2024-03-06T09:47:47;8.50;99.90
9907;DHT22;4992;51.628;6.664;2024-03-06T09:50:16;8.70;99.90
9907;DHT22;4992;51.628;6.664;2024-03-06T09:52:43;8.80;99.90
9907;DHT22;4992;51.628;6.664;2024-03-06T09:55:11;8.90;99.90
9907;DHT22;4992;51.628;6.664;2024-03-06T09:57:38;9.00;99.90
9907;DHT22;4992;51.628;6.664;2024-03-06T10:00:05;9.10;99.90
9907;DHT22;4992;51.628;6.664;2024-03-06T10:02:37;9.20;99.90
9907;DHT22;4992;51.628;6.664;2024-03-06T10:05:03;9.30;99.90
9907;DHT22;4992;51.628;6.664;2024-03-06T10:07:31;9.50;99.90
9907;DHT22;4992;51.628;6.664;2024-03-06T10:09:56;9.60;99.90
9907;DHT22;4992;51.628;6.664;2024-03-06T10:12:22;9.70;99.90
9907;DHT22;4992;51.628;6.664;2024-03-06T10:14:52;9.80;99.90
9907;DHT22;4992;51.628;6.664;2024-03-06T10:17:21;9.90;99.90
9907;DHT22;4992;51.628;6.664;2024-03-06T10:19:52;10.00;99.90
9907;DHT22;4992;51.628;6.664;2024-03-06T10:22:19;10.20;99.90
9907;DHT22;4992;51.628;6.664;2024-03-06T10:24:45;10.30;99.90
9907;DHT22;4992;51.628;6.664;2024-03-06T10:27:15;10.50;99.90
9907;DHT22;4992;51.628;6.664;2024-03-06T10:29:43;10.60;99.90
9907;DHT22;4992;51.628;6.664;2024-03-06T10:32:09;10.80;99.90
9907;DHT22;4992;51.628;6.664;2024-03-06T10:34:37;10.90;99.90
9907;DHT22;4992;51.628;6.664;2024-03-06T10:37:04;11.00;99.90
9907;DHT22;4992;51.628;6.664;2024-03-06T10:39:35;11.00;99.90
9907;DHT22;4992;51.628;6.664;2024-03-06T10:42:07;11.10;99.90
9907;DHT22;4992;51.628;6.664;2024-03-06T10:44:34;11.00;99.90
9907;DHT22;4992;51.628;6.664;2024-03-06T10:47:02;11.00;99.90
9907;DHT22;4992;51.628;6.664;2024-03-06T10:49:29;11.00;99.90
9907;DHT22;4992;51.628;6.664;2024-03-06T10:52:05;11.00;99.90
9907;DHT22;4992;51.628;6.664;2024-03-06T10:54:34;11.10;99.90
9907;DHT22;4992;51.628;6.664;2024-03-06T10:57:01;11.20;99.90
9907;DHT22;4992;51.628;6.664;2024-03-06T10:59:28;11.30;99.90
9907;DHT22;4992;51.628;6.664;2024-03-06T11:02:00;11.50;99.90
9907;DHT22;4992;51.628;6.664;2024-03-06T11:04:29;11.70;99.90
9907;DHT22;4992;51.628;6.664;2024-03-06T11:07:00;11.90;99.90
9907;DHT22;4992;51.628;6.664;2024-03-06T11:09:44;12.00;99.90
9907;DHT22;4992;51.628;6.664;2024-03-06T11:12:09;12.50;99.90
9907;DHT22;4992;51.628;6.664;2024-03-06T11:14:39;13.00;99.90
9907;DHT22;4992;51.628;6.664;2024-03-06T11:17:11;13.40;99.90
9907;DHT22;4992;51.628;6.664;2024-03-06T11:28:35;15.10;99.90
9907;DHT22;4992;51.628;6.664;2024-03-06T11:31:01;15.40;99.90
9907;DHT22;4992;51.628;6.664;2024-03-06T11:33:43;15.90;99.90
9907;DHT22;4992;51.628;6.664;2024-03-06T11:36:29;16.40;99.90
9907;DHT22;4992;51.628;6.664;2024-03-06T11:38:58;17.00;99.90
9907;DHT22;4992;51.628;6.664;2024-03-06T11:41:28;17.50;99.90
9907;DHT22;4992;51.628;6.664;2024-03-06T11:43:55;17.80;99.90
9907;DHT22;4992;51.628;6.664;2024-03-06T11:46:23;17.80;99.90
9907;DHT22;4992;51.628;6.664;2024-03-06T11:48:53;18.00;99.90
9907;DHT22;4992;51.628;6.664;2024-03-06T11:51:19;17.80;99.90
9907;DHT22;4992;51.628;6.664;2024-03-06T11:53:45;17.80;99.90
9907;DHT22;4992;51.628;6.664;2024-03-06T11:56:11;17.30;99.90
9907;DHT22;4992;51.628;6.664;2024-03-06T11:58:36;16.80;99.90
9907;DHT22;4992;51.628;6.664;2024-03-06T12:01:03;16.60;99.90
9907;DHT22;4992;51.628;6.664;2024-03-06T12:03:29;16.40;99.90
9907;DHT22;4992;51.628;6.664;2024-03-06T12:05:55;16.20;99.90
9907;DHT22;4992;51.628;6.664;2024-03-06T12:08:20;15.80;99.90
9907;DHT22;4992;51.628;6.664;2024-03-06T12:10:46;15.40;99.90
9907;DHT22;4992;51.628;6.664;2024-03-06T12:13:13;15.10;99.90
9907;DHT22;4992;51.628;6.664;2024-03-06T12:15:38;14.80;99.90
9907;DHT22;4992;51.628;6.664;2024-03-06T12:18:04;14.40;99.90
9907;DHT22;4992;51.628;6.664;2024-03-06T12:20:30;14.20;99.90
9907;DHT22;4992;51.628;6.664;2024-03-06T12:22:57;14.00;99.90
9907;DHT22;4992;51.628;6.664;2024-03-06T12:25:24;13.80;99.90
9907;DHT22;4992;51.628;6.664;2024-03-06T12:27:50;13.60;99.90
9907;DHT22;4992;51.628;6.664;2024-03-06T12:30:17;13.50;99.90
9907;DHT22;4992;51.628;6.664;2024-03-06T12:33:03;13.50;99.90
9907;DHT22;4992;51.628;6.664;2024-03-06T12:35:30;13.30;99.90
9907;DHT22;4992;51.628;6.664;2024-03-06T12:37:55;13.20;99.90
9907;DHT22;4992;51.628;6.664;2024-03-06T12:40:22;13.10;99.90
9907;DHT22;4992;51.628;6.664;2024-03-06T12:42:47;13.00;99.90
9907;DHT22;4992;51.628;6.664;2024-03-06T12:45:15;12.90;99.90
9907;DHT22;4992;51.628;6.664;2024-03-06T12:47:41;12.70;99.90
9907;DHT22;4992;51.628;6.664;2024-03-06T12:50:08;12.60;99.90
9907;DHT22;4992;51.628;6.664;2024-03-06T12:52:37;12.60;99.90
9907;DHT22;4992;51.628;6.664;2024-03-06T12:55:03;12.60;99.90
9907;DHT22;4992;51.628;6.664;2024-03-06T12:57:33;12.60;99.90
9907;DHT22;4992;51.628;6.664;2024-03-06T12:59:59;12.70;99.90
9907;DHT22;4992;51.628;6.664;2024-03-06T13:02:25;13.50;99.90
9907;DHT22;4992;51.628;6.664;2024-03-06T13:04:52;14.70;99.90
9907;DHT22;4992;51.628;6.664;2024-03-06T13:07:18;16.00;99.90
9907;DHT22;4992;51.628;6.664;2024-03-06T13:09:44;17.20;99.90
9907;DHT22;4992;51.628;6.664;2024-03-06T13:12:09;17.80;99.90
9907;DHT22;4992;51.628;6.664;2024-03-06T13:14:35;18.00;99.90
9907;DHT22;4992;51.628;6.664;2024-03-06T13:17:01;17.80;99.90
9907;DHT22;4992;51.628;6.664;2024-03-06T13:19:28;17.20;99.90
9907;DHT22;4992;51.628;6.664;2024-03-06T13:21:53;16.90;99.90
9907;DHT22;4992;51.628;6.664;2024-03-06T13:24:19;16.70;99.90
9907;DHT22;4992;51.628;6.664;2024-03-06T13:26:45;16.50;99.90
9907;DHT22;4992;51.628;6.664;2024-03-06T13:29:12;16.30;99.90
9907;DHT22;4992;51.628;6.664;2024-03-06T13:31:37;16.20;99.90
9907;DHT22;4992;51.628;6.664;2024-03-06T13:34:03;16.30;99.90
9907;DHT22;4992;51.628;6.664;2024-03-06T13:36:29;16.80;99.90
9907;DHT22;4992;51.628;6.664;2024-03-06T13:38:56;17.70;99.90
9907;DHT22;4992;51.628;6.664;2024-03-06T13:41:21;18.70;99.90
9907;DHT22;4992;51.628;6.664;2024-03-06T13:43:47;19.70;99.90
9907;DHT22;4992;51.628;6.664;2024-03-06T13:46:12;20.50;99.90
9907;DHT22;4992;51.628;6.664;2024-03-06T13:48:38;21.10;99.90
9907;DHT22;4992;51.628;6.664;2024-03-06T13:51:04;21.50;99.90
9907;DHT22;4992;51.628;6.664;2024-03-06T13:53:30;21.70;99.90
9907;DHT22;4992;51.628;6.664;2024-03-06T13:55:56;22.10;99.70
9907;DHT22;4992;51.628;6.664;2024-03-06T13:58:22;22.70;99.90
9907;DHT22;4992;51.628;6.664;2024-03-06T14:00:47;23.20;97.30
9907;DHT22;4992;51.628;6.664;2024-03-06T14:03:13;23.30;96.00
9907;DHT22;4992;51.628;6.664;2024-03-06T14:05:39;23.80;94.70
9907;DHT22;4992;51.628;6.664;2024-03-06T14:08:05;24.40;94.00
9907;DHT22;4992;51.628;6.664;2024-03-06T14:10:31;25.00;93.00
9907;DHT22;4992;51.628;6.664;2024-03-06T14:12:59;25.40;91.20
9907;DHT22;4992;51.628;6.664;2024-03-06T14:15:25;25.90;90.10
9907;DHT22;4992;51.628;6.664;2024-03-06T14:17:52;26.50;86.40
9907;DHT22;4992;51.628;6.664;2024-03-06T14:20:19;26.30;77.70
9907;DHT22;4992;51.628;6.664;2024-03-06T14:22:44;26.10;79.70
9907;DHT22;4992;51.628;6.664;2024-03-06T14:25:10;26.50;80.70
9907;DHT22;4992;51.628;6.664;2024-03-06T14:27:36;26.90;79.30
9907;DHT22;4992;51.628;6.664;2024-03-06T14:30:03;26.90;77.40
9907;DHT22;4992;51.628;6.664;2024-03-06T14:32:29;26.60;75.70
9907;DHT22;4992;51.628;6.664;2024-03-06T14:34:54;26.60;74.70
9907;DHT22;4992;51.628;6.664;2024-03-06T14:37:20;26.50;74.60
9907;DHT22;4992;51.628;6.664;2024-03-06T14:39:46;26.20;74.80
9907;DHT22;4992;51.628;6.664;2024-03-06T14:42:12;25.80;73.80
9907;DHT22;4992;51.628;6.664;2024-03-06T14:44:37;25.20;74.70
9907;DHT22;4992;51.628;6.664;2024-03-06T14:47:03;24.40;75.80
9907;DHT22;4992;51.628;6.664;2024-03-06T14:49:28;23.40;76.70
9907;DHT22;4992;51.628;6.664;2024-03-06T14:51:54;22.20;80.00
9907;DHT22;4992;51.628;6.664;2024-03-06T14:54:21;21.10;82.90
9907;DHT22;4992;51.628;6.664;2024-03-06T14:56:48;20.20;85.50
9907;DHT22;4992;51.628;6.664;2024-03-06T14:59:14;19.40;87.50
9907;DHT22;4992;51.628;6.664;2024-03-06T15:01:39;18.60;89.20
9907;DHT22;4992;51.628;6.664;2024-03-06T15:04:05;18.20;91.10
9907;DHT22;4992;51.628;6.664;2024-03-06T15:06:30;17.90;92.10
9907;DHT22;4992;51.628;6.664;2024-03-06T15:08:56;17.50;93.50
9907;DHT22;4992;51.628;6.664;2024-03-06T15:11:21;17.30;93.80
9907;DHT22;4992;51.628;6.664;2024-03-06T15:13:48;17.00;95.40
9907;DHT22;4992;51.628;6.664;2024-03-06T15:16:14;16.60;96.80
9907;DHT22;4992;51.628;6.664;2024-03-06T15:18:40;16.40;98.30
9907;DHT22;4992;51.628;6.664;2024-03-06T15:21:06;16.20;99.90
9907;DHT22;4992;51.628;6.664;2024-03-06T15:23:32;16.10;99.90
9907;DHT22;4992;51.628;6.664;2024-03-06T15:25:58;15.90;99.90
9907;DHT22;4992;51.628;6.664;2024-03-06T15:28:24;15.80;99.90
9907;DHT22;4992;51.628;6.664;2024-03-06T15:30:49;15.60;99.90
9907;DHT22;4992;51.628;6.664;2024-03-06T15:33:15;15.50;99.90
9907;DHT22;4992;51.628;6.664;2024-03-06T15:35:41;15.30;99.90
9907;DHT22;4992;51.628;6.664;2024-03-06T15:38:06;15.10;99.90
9907;DHT22;4992;51.628;6.664;2024-03-06T15:40:32;14.90;99.90
9907;DHT22;4992;51.628;6.664;2024-03-06T15:42:58;14.60;99.90
9907;DHT22;4992;51.628;6.664;2024-03-06T15:45:23;14.40;99.90
9907;DHT22;4992;51.628;6.664;2024-03-06T15:47:49;14.10;99.90
9907;DHT22;4992;51.628;6.664;2024-03-06T15:50:15;14.00;99.90
9907;DHT22;4992;51.628;6.664;2024-03-06T15:52:41;13.90;99.90
9907;DHT22;4992;51.628;6.664;2024-03-06T15:55:07;13.80;99.90
9907;DHT22;4992;51.628;6.664;2024-03-06T15:57:34;13.80;99.90
9907;DHT22;4992;51.628;6.664;2024-03-06T16:00:01;13.60;99.90
9907;DHT22;4992;51.628;6.664;2024-03-06T16:02:26;13.50;99.90
9907;DHT22;4992;51.628;6.664;2024-03-06T16:04:52;13.40;99.90
9907;DHT22;4992;51.628;6.664;2024-03-06T16:07:17;13.30;99.90
9907;DHT22;4992;51.628;6.664;2024-03-06T16:09:43;13.10;99.90
9907;DHT22;4992;51.628;6.664;2024-03-06T16:12:09;13.00;99.90
9907;DHT22;4992;51.628;6.664;2024-03-06T16:14:34;12.80;99.90
9907;DHT22;4992;51.628;6.664;2024-03-06T16:17:00;12.70;99.90